CES3211 ZSPD-ZSNJ
Flight info
| Callsign | CES3211 |
|---|---|
| Flight time | 0h 45m |
| Altitude | 15700 |
| Route | SASAN R343 ESBAG |
| Aircraft | A321/M-SDE3FGHIRWY/LB1 |
Departure
| Time | 2026-05-04 10:20 |
|---|---|
| Airport | Shanghai Pudong International Airport (ZSPD) |
Arrival
| Time | 2026-05-04 11:05 |
|---|---|
| Airport | Nanjing Lukou International Airport (ZSNJ) |
| Time | Latitude | Longitude | Altitude | Speed | Heading |
|---|---|---|---|---|---|
| 2026-05-04 09:57 | 31.13661 | 121.80459 | 21 ft | 0 kts | 192° |
| 2026-05-04 10:04 | 31.13662 | 121.80459 | 21 ft | 1 kts | 192° |
| 2026-05-04 10:04 | 31.13675 | 121.80463 | 21 ft | 2 kts | 192° |
| 2026-05-04 10:05 | 31.13676 | 121.80463 | 21 ft | 2 kts | 192° |
| 2026-05-04 10:05 | 31.13690 | 121.80466 | 21 ft | 2 kts | 192° |
| 2026-05-04 10:05 | 31.13705 | 121.80469 | 21 ft | 2 kts | 192° |
| 2026-05-04 10:05 | 31.13719 | 121.80473 | 21 ft | 2 kts | 192° |
| 2026-05-04 10:06 | 31.13734 | 121.80477 | 21 ft | 2 kts | 192° |
| 2026-05-04 10:06 | 31.13747 | 121.80485 | 21 ft | 2 kts | 226° |
| 2026-05-04 10:06 | 31.13756 | 121.80499 | 21 ft | 2 kts | 251° |
| 2026-05-04 10:08 | 31.13755 | 121.80527 | 21 ft | 0 kts | 286° |
| 2026-05-04 10:08 | 31.13758 | 121.80517 | 21 ft | 2 kts | 286° |
| 2026-05-04 10:09 | 31.13767 | 121.80483 | 21 ft | 5 kts | 291° |
| 2026-05-04 10:09 | 31.13796 | 121.80443 | 21 ft | 7 kts | 327° |
| 2026-05-04 10:09 | 31.13855 | 121.80419 | 21 ft | 10 kts | 344° |
| 2026-05-04 10:09 | 31.13931 | 121.80392 | 21 ft | 12 kts | 342° |
| 2026-05-04 10:10 | 31.14021 | 121.80358 | 21 ft | 14 kts | 342° |
| 2026-05-04 10:10 | 31.14125 | 121.80320 | 21 ft | 16 kts | 343° |
| 2026-05-04 10:10 | 31.14236 | 121.80279 | 21 ft | 13 kts | 340° |
| 2026-05-04 10:10 | 31.14260 | 121.80187 | 21 ft | 13 kts | 252° |
| 2026-05-04 10:11 | 31.14228 | 121.80077 | 21 ft | 14 kts | 252° |
| 2026-05-04 10:11 | 31.14197 | 121.79962 | 21 ft | 14 kts | 252° |
| 2026-05-04 10:11 | 31.14163 | 121.79845 | 21 ft | 15 kts | 252° |
| 2026-05-04 10:11 | 31.14131 | 121.79723 | 21 ft | 15 kts | 259° |
| 2026-05-04 10:12 | 31.14121 | 121.79607 | 21 ft | 7 kts | 289° |
| 2026-05-04 10:12 | 31.14164 | 121.79559 | 21 ft | 10 kts | 341° |
| 2026-05-04 10:12 | 31.14235 | 121.79534 | 21 ft | 11 kts | 339° |
| 2026-05-04 10:12 | 31.14312 | 121.79505 | 21 ft | 11 kts | 343° |
| 2026-05-04 10:13 | 31.14394 | 121.79478 | 21 ft | 12 kts | 344° |
| 2026-05-04 10:13 | 31.14481 | 121.79442 | 21 ft | 13 kts | 341° |
| 2026-05-04 10:13 | 31.14573 | 121.79406 | 21 ft | 14 kts | 341° |
| 2026-05-04 10:13 | 31.14669 | 121.79369 | 21 ft | 14 kts | 342° |
| 2026-05-04 10:14 | 31.14768 | 121.79333 | 21 ft | 15 kts | 343° |
| 2026-05-04 10:14 | 31.14871 | 121.79295 | 21 ft | 15 kts | 342° |
| 2026-05-04 10:16 | 31.15655 | 121.78999 | 21 ft | 17 kts | 342° |
| 2026-05-04 10:16 | 31.15773 | 121.78953 | 21 ft | 17 kts | 342° |
| 2026-05-04 10:16 | 31.15893 | 121.78908 | 21 ft | 18 kts | 341° |
| 2026-05-04 10:16 | 31.16015 | 121.78861 | 21 ft | 18 kts | 343° |
| 2026-05-04 10:17 | 31.16116 | 121.78821 | 21 ft | 8 kts | 329° |
| 2026-05-04 10:17 | 31.16149 | 121.78763 | 21 ft | 9 kts | 269° |
| 2026-05-04 10:19 | 31.16049 | 121.78626 | 21 ft | 10 kts | 162° |
| 2026-05-04 10:19 | 31.15976 | 121.78655 | 21 ft | 11 kts | 161° |
| 2026-05-04 10:19 | 31.15879 | 121.78692 | 21 ft | 26 kts | 162° |
| 2026-05-04 10:19 | 31.15439 | 121.78860 | 21 ft | 103 kts | 163° |
| 2026-05-04 10:20 | 31.14531 | 121.79202 | 23 ft | 165 kts | 160° |
| 2026-05-04 10:20 | 31.13368 | 121.79620 | 534 ft | 176 kts | 160° |
| 2026-05-04 10:20 | 31.12225 | 121.80087 | 1341 ft | 174 kts | 161° |
| 2026-05-04 10:20 | 31.11094 | 121.80474 | 1966 ft | 170 kts | 165° |
| 2026-05-04 10:21 | 31.08594 | 121.81239 | 2617 ft | 202 kts | 166° |
| 2026-05-04 10:21 | 31.07193 | 121.81677 | 2950 ft | 219 kts | 166° |
| 2026-05-04 10:21 | 31.05624 | 121.82175 | 3224 ft | 242 kts | 165° |
| 2026-05-04 10:22 | 31.02158 | 121.83172 | 4392 ft | 259 kts | 179° |
| 2026-05-04 10:22 | 31.00382 | 121.82788 | 5090 ft | 260 kts | 207° |
| 2026-05-04 10:22 | 30.98966 | 121.81533 | 5632 ft | 257 kts | 235° |
| 2026-05-04 10:23 | 30.98165 | 121.79704 | 5904 ft | 253 kts | 255° |
| 2026-05-04 10:23 | 30.97656 | 121.77753 | 5909 ft | 253 kts | 257° |
| 2026-05-04 10:25 | 30.97709 | 121.63357 | 8065 ft | 268 kts | 285° |
| 2026-05-04 10:25 | 30.98110 | 121.61226 | 8823 ft | 272 kts | 285° |
| 2026-05-04 10:25 | 30.98511 | 121.59074 | 9567 ft | 275 kts | 285° |
| 2026-05-04 10:25 | 30.98920 | 121.56873 | 10335 ft | 278 kts | 285° |
| 2026-05-04 10:26 | 30.99343 | 121.54600 | 10825 ft | 291 kts | 285° |
| 2026-05-04 10:26 | 30.99775 | 121.52268 | 11366 ft | 299 kts | 285° |
| 2026-05-04 10:26 | 31.00212 | 121.49893 | 12095 ft | 302 kts | 284° |
| 2026-05-04 10:26 | 31.00653 | 121.47484 | 12842 ft | 304 kts | 284° |
| 2026-05-04 10:27 | 31.01097 | 121.45070 | 13547 ft | 307 kts | 284° |
| 2026-05-04 10:27 | 31.01550 | 121.42617 | 14244 ft | 309 kts | 284° |
| 2026-05-04 10:27 | 31.02003 | 121.40163 | 14942 ft | 310 kts | 283° |
| 2026-05-04 10:27 | 31.02458 | 121.37690 | 15490 ft | 312 kts | 283° |
| 2026-05-04 10:28 | 31.02912 | 121.35210 | 15752 ft | 313 kts | 283° |
| 2026-05-04 10:28 | 31.03369 | 121.32703 | 15737 ft | 312 kts | 283° |
| 2026-05-04 10:28 | 31.03817 | 121.30247 | 15788 ft | 312 kts | 282° |
| 2026-05-04 10:28 | 31.04269 | 121.27769 | 15778 ft | 312 kts | 282° |
| 2026-05-04 10:29 | 31.04718 | 121.25304 | 15750 ft | 312 kts | 283° |
| 2026-05-04 10:29 | 31.05170 | 121.22821 | 15784 ft | 312 kts | 283° |
| 2026-05-04 10:29 | 31.05622 | 121.20339 | 15779 ft | 312 kts | 282° |
| 2026-05-04 10:29 | 31.06069 | 121.17886 | 15779 ft | 312 kts | 283° |
| 2026-05-04 10:30 | 31.06835 | 121.15483 | 15759 ft | 312 kts | 301° |
| 2026-05-04 10:30 | 31.08313 | 121.13631 | 15780 ft | 315 kts | 322° |
| 2026-05-04 10:30 | 31.10309 | 121.12526 | 15760 ft | 321 kts | 342° |
| 2026-05-04 10:30 | 31.12551 | 121.12236 | 15789 ft | 326 kts | 353° |
| 2026-05-04 10:31 | 31.14802 | 121.12123 | 15752 ft | 326 kts | 354° |
| 2026-05-04 10:31 | 31.17078 | 121.12013 | 15741 ft | 325 kts | 353° |
| 2026-05-04 10:32 | 31.30740 | 121.11247 | 15774 ft | 325 kts | 353° |
| 2026-05-04 10:33 | 31.33002 | 121.10867 | 15761 ft | 319 kts | 337° |
| 2026-05-04 10:33 | 31.34884 | 121.09573 | 15793 ft | 314 kts | 316° |
| 2026-05-04 10:33 | 31.36202 | 121.07567 | 15790 ft | 312 kts | 296° |
| 2026-05-04 10:33 | 31.36979 | 121.05188 | 15788 ft | 312 kts | 289° |
| 2026-05-04 10:34 | 31.37700 | 121.02782 | 15769 ft | 312 kts | 289° |
| 2026-05-04 10:34 | 31.38427 | 121.00358 | 15755 ft | 312 kts | 289° |
| 2026-05-04 10:34 | 31.39150 | 120.97958 | 15769 ft | 312 kts | 289° |
| 2026-05-04 10:34 | 31.39874 | 120.95558 | 15775 ft | 312 kts | 289° |
| 2026-05-04 10:35 | 31.40598 | 120.93162 | 15764 ft | 312 kts | 289° |
| 2026-05-04 10:35 | 31.41322 | 120.90765 | 15757 ft | 312 kts | 289° |
| 2026-05-04 10:35 | 31.42038 | 120.88396 | 15758 ft | 312 kts | 290° |
| 2026-05-04 10:35 | 31.42767 | 120.85982 | 15769 ft | 312 kts | 289° |
| 2026-05-04 10:36 | 31.43489 | 120.83590 | 15757 ft | 312 kts | 290° |
| 2026-05-04 10:36 | 31.44205 | 120.81217 | 15764 ft | 312 kts | 290° |
| 2026-05-04 10:36 | 31.44941 | 120.78777 | 15771 ft | 312 kts | 290° |
| 2026-05-04 10:36 | 31.45661 | 120.76389 | 15776 ft | 311 kts | 290° |
| 2026-05-04 10:37 | 31.46382 | 120.73994 | 15764 ft | 312 kts | 290° |
| 2026-05-04 10:37 | 31.47104 | 120.71591 | 15755 ft | 312 kts | 290° |
| 2026-05-04 10:37 | 31.47832 | 120.69172 | 15757 ft | 312 kts | 290° |
| 2026-05-04 10:37 | 31.48552 | 120.66773 | 15752 ft | 312 kts | 290° |
| 2026-05-04 10:39 | 31.51927 | 120.55515 | 15755 ft | 312 kts | 290° |
| 2026-05-04 10:39 | 31.51965 | 120.55387 | 15756 ft | 312 kts | 290° |
| 2026-05-04 10:40 | 31.52574 | 120.53347 | 15754 ft | 312 kts | 290° |
| 2026-05-04 10:40 | 31.53289 | 120.50954 | 15752 ft | 312 kts | 290° |
| 2026-05-04 10:40 | 31.54001 | 120.48570 | 15756 ft | 312 kts | 290° |
| 2026-05-04 10:40 | 31.54719 | 120.46160 | 15758 ft | 312 kts | 290° |
| 2026-05-04 10:41 | 31.55431 | 120.43774 | 15758 ft | 312 kts | 290° |
| 2026-05-04 10:41 | 31.56142 | 120.41385 | 15753 ft | 312 kts | 290° |
| 2026-05-04 10:41 | 31.56859 | 120.38974 | 15752 ft | 312 kts | 290° |
| 2026-05-04 10:41 | 31.57568 | 120.36591 | 15560 ft | 312 kts | 290° |
| 2026-05-04 10:42 | 31.58270 | 120.34174 | 15310 ft | 310 kts | 287° |
| 2026-05-04 10:42 | 31.58790 | 120.31712 | 15065 ft | 311 kts | 282° |
| 2026-05-04 10:42 | 31.59076 | 120.29239 | 14819 ft | 311 kts | 276° |
| 2026-05-04 10:42 | 31.59221 | 120.26708 | 14562 ft | 311 kts | 275° |
| 2026-05-04 10:43 | 31.59345 | 120.24181 | 14317 ft | 310 kts | 275° |
| 2026-05-04 10:44 | 31.60192 | 120.06641 | 12603 ft | 305 kts | 276° |
| 2026-05-04 10:45 | 31.60316 | 120.04064 | 12346 ft | 305 kts | 276° |
| 2026-05-04 10:45 | 31.60435 | 120.01573 | 12095 ft | 303 kts | 276° |
| 2026-05-04 10:45 | 31.60554 | 119.99096 | 11849 ft | 302 kts | 276° |
| 2026-05-04 10:45 | 31.60672 | 119.96606 | 11602 ft | 301 kts | 276° |
| 2026-05-04 10:46 | 31.60790 | 119.94112 | 11354 ft | 301 kts | 276° |
| 2026-05-04 10:46 | 31.60904 | 119.91686 | 11117 ft | 299 kts | 276° |
| 2026-05-04 10:46 | 31.61018 | 119.89272 | 10870 ft | 299 kts | 276° |
| 2026-05-04 10:46 | 31.61132 | 119.86826 | 10613 ft | 296 kts | 276° |
| 2026-05-04 10:47 | 31.61241 | 119.84468 | 10361 ft | 288 kts | 276° |
| 2026-05-04 10:47 | 31.61348 | 119.82143 | 10113 ft | 280 kts | 276° |
| 2026-05-04 10:47 | 31.61450 | 119.79906 | 9871 ft | 275 kts | 276° |
| 2026-05-04 10:47 | 31.61554 | 119.77657 | 9630 ft | 275 kts | 276° |
| 2026-05-04 10:49 | 31.63643 | 119.62496 | 7891 ft | 268 kts | 292° |
| 2026-05-04 10:49 | 31.64329 | 119.60487 | 7645 ft | 267 kts | 292° |
| 2026-05-04 10:50 | 31.65022 | 119.58456 | 7399 ft | 266 kts | 292° |
| 2026-05-04 10:51 | 31.69768 | 119.44398 | 6011 ft | 265 kts | 291° |
| 2026-05-04 10:52 | 31.70444 | 119.42383 | 5968 ft | 265 kts | 291° |
| 2026-05-04 10:52 | 31.71124 | 119.40358 | 5926 ft | 265 kts | 291° |
| 2026-05-04 10:52 | 31.71797 | 119.38354 | 5921 ft | 266 kts | 291° |
| 2026-05-04 10:54 | 31.76538 | 119.24291 | 5002 ft | 263 kts | 290° |
| 2026-05-04 10:54 | 31.77209 | 119.22308 | 4753 ft | 258 kts | 290° |
| 2026-05-04 10:56 | 31.84818 | 119.12914 | 3003 ft | 220 kts | 315° |
| 2026-05-04 10:56 | 31.85506 | 119.11398 | 2810 ft | 209 kts | 271° |
| 2026-05-04 10:56 | 31.85122 | 119.09878 | 2819 ft | 186 kts | 236° |
| 2026-05-04 10:57 | 31.84388 | 119.08703 | 2749 ft | 171 kts | 231° |
| 2026-05-04 10:57 | 31.83710 | 119.07653 | 2703 ft | 153 kts | 232° |
| 2026-05-04 10:57 | 31.83096 | 119.06644 | 2696 ft | 149 kts | 234° |
| 2026-05-04 10:57 | 31.82518 | 119.05648 | 2773 ft | 146 kts | 235° |
| 2026-05-04 10:58 | 31.81957 | 119.04649 | 2813 ft | 145 kts | 236° |
| 2026-05-04 10:58 | 31.81404 | 119.03639 | 2840 ft | 145 kts | 236° |
| 2026-05-04 10:58 | 31.80858 | 119.02628 | 2790 ft | 145 kts | 236° |
| 2026-05-04 10:58 | 31.80323 | 119.01628 | 2610 ft | 144 kts | 236° |
| 2026-05-04 10:59 | 31.79788 | 119.00624 | 2429 ft | 144 kts | 236° |
| 2026-05-04 10:59 | 31.79263 | 118.99636 | 2243 ft | 143 kts | 236° |
| 2026-05-04 10:59 | 31.78737 | 118.98646 | 2057 ft | 143 kts | 236° |
| 2026-05-04 10:59 | 31.78202 | 118.97643 | 1865 ft | 143 kts | 236° |
| 2026-05-04 11:00 | 31.77680 | 118.96663 | 1685 ft | 143 kts | 236° |
| 2026-05-04 11:01 | 31.73994 | 118.89784 | 399 ft | 141 kts | 236° |
| 2026-05-04 11:02 | 31.73492 | 118.88813 | 231 ft | 141 kts | 237° |
| 2026-05-04 11:02 | 31.72968 | 118.87841 | 73 ft | 139 kts | 237° |
| 2026-05-04 11:05 | 31.72007 | 118.85657 | 53 ft | 0 kts | 56° |